createdAt,value
2023-03-26T00:00:42.237Z,985.85
2023-03-26T00:01:42.122Z,985.83
2023-03-26T00:02:42.075Z,985.87
2023-03-26T00:03:41.986Z,985.90
2023-03-26T00:05:02.910Z,985.85
2023-03-26T00:05:41.934Z,985.86
2023-03-26T00:06:41.818Z,985.82
2023-03-26T00:07:41.756Z,985.87
2023-03-26T00:08:41.705Z,985.87
2023-03-26T00:09:41.655Z,985.79
2023-03-26T00:10:41.568Z,985.85
2023-03-26T00:11:41.546Z,985.84
2023-03-26T00:12:41.418Z,985.87
2023-03-26T00:13:41.368Z,985.88
2023-03-26T00:14:41.311Z,985.88
2023-03-26T00:15:41.238Z,985.83
2023-03-26T00:16:41.266Z,985.88
2023-03-26T00:17:41.233Z,985.90
2023-03-26T00:18:41.121Z,985.90
2023-03-26T00:19:40.986Z,985.90
2023-03-26T00:20:40.966Z,985.90
2023-03-26T00:21:40.914Z,985.91
2023-03-26T00:22:40.843Z,985.95
2023-03-26T00:23:40.749Z,985.87
2023-03-26T00:24:40.670Z,985.91
2023-03-26T00:25:40.682Z,985.93
2023-03-26T00:26:40.583Z,985.93
2023-03-26T00:27:40.532Z,985.92
2023-03-26T00:28:40.692Z,985.96
2023-03-26T00:29:40.363Z,985.93
2023-03-26T00:30:40.306Z,985.92
2023-03-26T00:31:40.225Z,985.91
2023-03-26T00:32:40.199Z,985.92
2023-03-26T00:33:40.139Z,985.94
2023-03-26T00:34:40.062Z,985.99
2023-03-26T00:35:40.036Z,985.99
2023-03-26T00:36:39.959Z,985.98
2023-03-26T00:37:39.858Z,986.04
2023-03-26T00:38:39.870Z,986.00
2023-03-26T00:39:39.738Z,986.01
2023-03-26T00:40:39.769Z,985.98
2023-03-26T00:41:39.607Z,985.96
2023-03-26T00:42:39.553Z,985.90
2023-03-26T00:43:39.492Z,985.95
2023-03-26T00:44:39.450Z,985.95
2023-03-26T00:45:39.372Z,985.97
2023-03-26T00:46:39.339Z,985.92
2023-03-26T00:47:39.280Z,986.00
2023-03-26T00:49:39.130Z,985.87
2023-03-26T00:50:39.070Z,985.95
2023-03-26T00:51:39.214Z,985.92
2023-03-26T00:52:38.959Z,985.95
2023-03-26T00:53:39.739Z,986.00
2023-03-26T00:54:38.857Z,985.99
2023-03-26T00:55:38.732Z,985.97
2023-03-26T00:56:39.019Z,985.97
2023-03-26T00:57:38.625Z,985.98
2023-03-26T00:58:59.548Z,985.94
2023-03-26T00:59:38.549Z,985.96
2023-03-26T01:00:38.414Z,985.94
2023-03-26T01:01:39.251Z,985.95
2023-03-26T01:02:38.364Z,985.94
2023-03-26T01:03:38.339Z,985.96
2023-03-26T01:04:38.296Z,985.93
2023-03-26T01:05:38.156Z,985.96
2023-03-26T01:06:38.076Z,985.92
2023-03-26T01:07:38.003Z,985.96
2023-03-26T01:08:37.939Z,985.95
2023-03-26T01:09:37.883Z,985.97
2023-03-26T01:10:37.833Z,985.92
2023-03-26T01:11:37.785Z,985.88
2023-03-26T01:12:37.675Z,985.87
2023-03-26T01:13:37.572Z,985.95
2023-03-26T01:14:37.530Z,985.95
2023-03-26T01:15:37.619Z,985.93
2023-03-26T01:16:37.393Z,985.93
2023-03-26T01:17:37.353Z,985.96
2023-03-26T01:18:37.257Z,985.98
2023-03-26T01:19:37.288Z,985.95
2023-03-26T01:20:37.150Z,985.99
2023-03-26T01:21:37.129Z,986.02
2023-03-26T01:22:37.084Z,986.02
2023-03-26T01:23:36.960Z,985.98
2023-03-26T01:24:36.966Z,986.02
2023-03-26T01:25:36.846Z,985.91
2023-03-26T01:26:36.803Z,985.96
2023-03-26T01:27:36.708Z,985.95
2023-03-26T01:28:36.700Z,985.91
2023-03-26T01:29:36.617Z,985.91
2023-03-26T01:30:36.553Z,985.89
2023-03-26T01:31:36.458Z,985.91
2023-03-26T01:32:36.507Z,985.94
2023-03-26T01:33:36.473Z,985.96
2023-03-26T01:36:15.282Z,985.99
2023-03-26T01:37:16.251Z,985.98
2023-03-26T01:38:16.192Z,985.99
2023-03-26T01:39:16.103Z,986.02
2023-03-26T01:40:16.008Z,986.02
2023-03-26T01:41:16.062Z,985.94
2023-03-26T01:42:15.892Z,985.89
2023-03-26T01:43:15.832Z,985.91
2023-03-26T01:44:15.791Z,985.90
2023-03-26T01:45:15.757Z,985.85
2023-03-26T01:46:15.706Z,985.89
2023-03-26T01:47:15.643Z,985.93
2023-03-26T01:48:15.572Z,985.90
2023-03-26T01:49:15.486Z,985.96
2023-03-26T01:50:15.391Z,985.96
2023-03-26T01:51:15.350Z,986.00
2023-03-26T01:52:15.291Z,985.97
2023-03-26T01:53:15.248Z,985.99
2023-03-26T01:54:15.194Z,986.02
2023-03-26T01:55:15.141Z,985.99
2023-03-26T01:56:15.016Z,986.02
2023-03-26T01:57:15.008Z,986.05
2023-03-26T01:58:14.962Z,986.03
2023-03-26T01:59:14.885Z,986.05
2023-03-26T02:00:14.812Z,986.01
2023-03-26T02:01:15.250Z,986.02
2023-03-26T02:02:14.767Z,986.03
2023-03-26T02:03:14.702Z,986.03
2023-03-26T02:04:14.567Z,986.03
2023-03-26T02:05:14.488Z,986.07
2023-03-26T02:06:14.443Z,986.05
2023-03-26T02:07:14.376Z,986.07
2023-03-26T02:08:14.293Z,986.05
2023-03-26T02:09:14.225Z,986.03
2023-03-26T02:10:14.134Z,986.03
2023-03-26T02:11:35.869Z,986.05
2023-03-26T02:12:14.066Z,986.05
2023-03-26T02:13:13.966Z,986.05
2023-03-26T02:14:13.915Z,986.03
2023-03-26T02:15:13.873Z,986.02
2023-03-26T02:16:13.818Z,986.02
2023-03-26T02:17:13.766Z,986.02
2023-03-26T02:18:13.678Z,986.00
2023-03-26T02:19:13.601Z,985.98
2023-03-26T02:20:13.557Z,985.95
2023-03-26T02:21:13.511Z,985.96
2023-03-26T02:22:13.459Z,985.94
2023-03-26T02:23:13.407Z,985.92
2023-03-26T02:24:13.320Z,985.87
2023-03-26T02:25:13.292Z,985.82
2023-03-26T02:26:13.189Z,985.87
2023-03-26T02:27:13.122Z,985.85
2023-03-26T02:28:13.070Z,985.83
2023-03-26T02:29:33.976Z,985.84
2023-03-26T02:30:12.942Z,985.80
2023-03-26T02:31:12.945Z,985.78
2023-03-26T02:32:12.786Z,985.80
2023-03-26T02:33:12.790Z,985.75
2023-03-26T02:34:12.652Z,985.75
2023-03-26T02:35:12.858Z,985.76
2023-03-26T02:36:12.635Z,985.77
2023-03-26T02:37:12.534Z,985.75
2023-03-26T02:38:12.485Z,985.76
2023-03-26T02:39:12.381Z,985.73
2023-03-26T02:40:12.326Z,985.77
2023-03-26T02:41:12.334Z,985.78
2023-03-26T02:42:12.226Z,985.74
2023-03-26T02:43:12.166Z,985.75
2023-03-26T02:44:12.034Z,985.76
2023-03-26T02:45:12.011Z,985.72
2023-03-26T02:46:12.012Z,985.68
2023-03-26T02:48:21.079Z,985.77
2023-03-26T02:49:22.038Z,985.79
2023-03-26T02:50:21.955Z,985.75
2023-03-26T02:51:21.927Z,985.73
2023-03-26T02:52:21.836Z,985.77
2023-03-26T02:53:21.788Z,985.80
2023-03-26T02:54:21.703Z,985.75
2023-03-26T02:55:21.651Z,985.74
2023-03-26T02:56:21.574Z,985.73
2023-03-26T02:57:21.482Z,985.72
2023-03-26T02:58:21.419Z,985.69
2023-03-26T02:59:21.426Z,985.71
2023-03-26T03:00:21.320Z,985.74
2023-03-26T03:01:21.303Z,985.73
2023-03-26T03:02:21.243Z,985.78
2023-03-26T03:03:21.177Z,985.80
2023-03-26T03:04:21.047Z,985.72
2023-03-26T03:07:00.029Z,985.66
2023-03-26T03:08:00.941Z,985.64
2023-03-26T03:09:00.922Z,985.63
2023-03-26T03:10:00.818Z,985.60
2023-03-26T03:12:09.943Z,985.61
2023-03-26T03:13:10.941Z,985.59
2023-03-26T03:14:10.809Z,985.49
2023-03-26T03:15:10.755Z,985.53
2023-03-26T03:16:10.811Z,985.49
2023-03-26T03:17:10.642Z,985.45
2023-03-26T03:18:10.604Z,985.47
2023-03-26T03:19:10.524Z,985.47
2023-03-26T03:20:10.452Z,985.48
2023-03-26T03:21:10.426Z,985.47
2023-03-26T03:22:10.313Z,985.44
2023-03-26T03:23:10.302Z,985.47
2023-03-26T03:24:10.199Z,985.46
2023-03-26T03:25:10.144Z,985.43
2023-03-26T03:26:10.136Z,985.39
2023-03-26T03:27:10.020Z,985.45
2023-03-26T03:28:09.973Z,985.41
2023-03-26T03:29:09.964Z,985.47
2023-03-26T03:30:09.853Z,985.41
2023-03-26T03:31:09.866Z,985.42
2023-03-26T03:32:09.735Z,985.38
2023-03-26T03:33:09.613Z,985.38
2023-03-26T03:34:09.641Z,985.35
2023-03-26T03:35:09.509Z,985.30
2023-03-26T03:36:09.494Z,985.29
2023-03-26T03:37:09.433Z,985.27
2023-03-26T03:38:09.362Z,985.26
2023-03-26T03:39:09.291Z,985.22
2023-03-26T03:40:09.204Z,985.25
2023-03-26T03:41:30.154Z,985.20
2023-03-26T03:42:09.145Z,985.21
2023-03-26T03:43:09.050Z,985.22
2023-03-26T03:44:09.030Z,985.21
2023-03-26T03:45:08.940Z,985.22
2023-03-26T03:46:08.906Z,985.24
2023-03-26T03:47:08.854Z,985.21
2023-03-26T03:48:08.837Z,985.24
2023-03-26T03:49:08.640Z,985.24
2023-03-26T03:50:08.614Z,985.22
2023-03-26T03:51:08.558Z,985.22
2023-03-26T03:52:08.523Z,985.16
2023-03-26T03:53:08.441Z,985.15
2023-03-26T03:54:08.938Z,985.13
2023-03-26T03:55:08.248Z,985.13
2023-03-26T03:56:08.234Z,985.14
2023-03-26T03:57:08.200Z,985.11
2023-03-26T03:58:08.129Z,985.14
2023-03-26T03:59:08.058Z,985.13
2023-03-26T04:00:08.016Z,985.12
2023-03-26T04:01:07.977Z,985.11
2023-03-26T04:02:07.825Z,985.11
2023-03-26T04:03:07.856Z,985.07
2023-03-26T04:04:07.771Z,985.07
2023-03-26T04:05:08.434Z,985.01
2023-03-26T04:06:07.647Z,985.04
2023-03-26T04:07:07.526Z,984.99
2023-03-26T04:08:07.521Z,985.00
2023-03-26T04:09:07.425Z,984.98
2023-03-26T04:10:07.364Z,985.03
2023-03-26T04:11:07.319Z,985.05
2023-03-26T04:12:07.234Z,985.04
2023-03-26T04:13:07.171Z,985.02
2023-03-26T04:14:07.071Z,984.97
2023-03-26T04:15:07.053Z,984.99
2023-03-26T04:16:07.055Z,984.94
2023-03-26T04:17:06.899Z,984.98
2023-03-26T04:18:06.906Z,984.97
2023-03-26T04:19:06.799Z,984.98
2023-03-26T04:20:06.787Z,984.94
2023-03-26T04:21:06.677Z,984.96
2023-03-26T04:22:06.590Z,984.93
2023-03-26T04:23:06.569Z,984.92
2023-03-26T04:24:06.465Z,984.89
2023-03-26T04:25:06.376Z,984.90
2023-03-26T04:26:06.314Z,984.87
2023-03-26T04:27:06.298Z,984.87
2023-03-26T04:28:06.253Z,984.86
2023-03-26T04:29:06.149Z,984.83
2023-03-26T04:30:06.086Z,984.83
2023-03-26T04:31:06.095Z,984.80
2023-03-26T04:32:05.962Z,984.78
2023-03-26T04:33:05.971Z,984.77
2023-03-26T04:34:05.859Z,984.77
2023-03-26T04:35:05.773Z,984.75
2023-03-26T04:36:05.741Z,984.75
2023-03-26T04:37:05.644Z,984.73
2023-03-26T04:38:05.613Z,984.70
2023-03-26T04:39:05.610Z,984.70
2023-03-26T04:40:05.438Z,984.73
2023-03-26T04:41:05.438Z,984.66
2023-03-26T04:42:05.334Z,984.67
2023-03-26T04:43:05.314Z,984.67
2023-03-26T04:44:05.226Z,984.67
2023-03-26T04:45:05.209Z,984.63
2023-03-26T04:46:05.037Z,984.63
2023-03-26T04:47:05.090Z,984.63
2023-03-26T04:48:05.031Z,984.61
2023-03-26T04:49:04.887Z,984.60
2023-03-26T04:50:04.890Z,984.59
2023-03-26T04:51:04.726Z,984.58
2023-03-26T04:52:04.752Z,984.57
2023-03-26T04:53:04.649Z,984.53
2023-03-26T04:54:04.567Z,984.53
2023-03-26T04:55:04.490Z,984.52
2023-03-26T04:56:04.435Z,984.55
2023-03-26T04:57:04.441Z,984.52
2023-03-26T04:58:04.283Z,984.48
2023-03-26T04:59:04.218Z,984.51
2023-03-26T05:00:04.193Z,984.47
2023-03-26T05:01:10.338Z,984.48
2023-03-26T05:02:04.081Z,984.44
2023-03-26T05:03:03.979Z,984.41
2023-03-26T05:04:03.950Z,984.46
2023-03-26T05:05:03.894Z,984.39
2023-03-26T05:06:03.799Z,984.42
2023-03-26T05:07:03.760Z,984.44
2023-03-26T05:08:03.656Z,984.42
2023-03-26T05:09:03.623Z,984.41
2023-03-26T05:10:03.625Z,984.42
2023-03-26T05:11:03.508Z,984.41
2023-03-26T05:12:03.410Z,984.39
2023-03-26T05:13:03.361Z,984.39
2023-03-26T05:14:03.281Z,984.38
2023-03-26T05:15:03.261Z,984.36
2023-03-26T05:16:03.181Z,984.34
2023-03-26T05:17:03.132Z,984.36
2023-03-26T05:18:03.081Z,984.28
2023-03-26T05:19:02.999Z,984.29
2023-03-26T05:20:02.912Z,984.25
2023-03-26T05:21:02.881Z,984.25
2023-03-26T05:22:02.819Z,984.21
2023-03-26T05:23:02.750Z,984.21
2023-03-26T05:24:02.697Z,984.19
2023-03-26T05:25:02.599Z,984.15
2023-03-26T05:26:02.544Z,984.10
2023-03-26T05:27:02.448Z,984.11
2023-03-26T05:28:02.437Z,984.13
2023-03-26T05:29:02.348Z,984.11
2023-03-26T05:30:02.316Z,984.12
2023-03-26T05:31:02.227Z,984.12
2023-03-26T05:32:02.139Z,984.12
2023-03-26T05:33:02.235Z,984.15
2023-03-26T05:34:02.101Z,984.17
2023-03-26T05:35:01.982Z,984.13
2023-03-26T05:36:01.977Z,984.16
2023-03-26T05:37:01.891Z,984.14
2023-03-26T05:38:01.800Z,984.12
2023-03-26T05:39:01.732Z,984.16
2023-03-26T05:40:01.714Z,984.14
2023-03-26T05:41:01.634Z,984.12
2023-03-26T05:42:01.564Z,984.14
2023-03-26T05:43:01.486Z,984.14
2023-03-26T05:44:01.466Z,984.12
2023-03-26T05:45:01.416Z,984.13
2023-03-26T05:46:01.318Z,984.12
2023-03-26T05:47:01.233Z,984.11
2023-03-26T05:48:01.251Z,984.11
2023-03-26T05:49:01.121Z,984.09
2023-03-26T05:50:01.047Z,984.10
2023-03-26T05:51:00.988Z,984.08
2023-03-26T05:52:00.923Z,984.03
2023-03-26T05:53:00.846Z,984.03
2023-03-26T05:54:00.817Z,983.95
2023-03-26T05:55:00.739Z,983.96
2023-03-26T05:56:00.671Z,983.94
2023-03-26T05:57:00.667Z,983.96
2023-03-26T05:58:00.542Z,983.87
2023-03-26T05:59:00.461Z,983.89
2023-03-26T06:00:00.455Z,983.88
2023-03-26T06:01:00.386Z,983.86
2023-03-26T06:02:00.327Z,983.80
2023-03-26T06:03:00.458Z,983.84
2023-03-26T06:04:00.356Z,983.79
2023-03-26T06:05:00.155Z,983.77
2023-03-26T06:06:00.059Z,983.79
2023-03-26T06:07:00.014Z,983.74
2023-03-26T06:07:59.936Z,983.77
2023-03-26T06:09:02.041Z,983.73
2023-03-26T06:09:59.804Z,983.70
2023-03-26T06:10:59.761Z,983.67
2023-03-26T06:11:59.644Z,983.62
2023-03-26T06:12:59.634Z,983.65
2023-03-26T06:13:59.567Z,983.61
2023-03-26T06:14:59.462Z,983.57
2023-03-26T06:15:59.419Z,983.62
2023-03-26T06:16:59.441Z,983.57
2023-03-26T06:17:59.371Z,983.57
2023-03-26T06:18:59.346Z,983.58
2023-03-26T06:19:59.918Z,983.60
2023-03-26T06:20:59.118Z,983.57
2023-03-26T06:21:59.037Z,983.54
2023-03-26T06:22:59.025Z,983.59
2023-03-26T06:23:58.926Z,983.60
2023-03-26T06:24:58.858Z,983.57
2023-03-26T06:25:58.807Z,983.61
2023-03-26T06:26:58.761Z,983.59
2023-03-26T06:27:58.729Z,983.56
2023-03-26T06:28:58.617Z,983.57
2023-03-26T06:29:58.559Z,983.57
2023-03-26T06:30:58.494Z,983.56
2023-03-26T06:32:09.053Z,983.54
2023-03-26T06:32:58.377Z,983.49
2023-03-26T06:33:58.364Z,983.52
2023-03-26T06:34:58.274Z,983.51
2023-03-26T06:35:58.240Z,983.51
2023-03-26T06:36:58.144Z,983.51
2023-03-26T06:37:58.089Z,983.51
2023-03-26T06:38:58.016Z,983.53
2023-03-26T06:39:57.922Z,983.49
2023-03-26T06:41:18.887Z,983.50
2023-03-26T06:41:57.834Z,983.52
2023-03-26T06:43:07.787Z,983.53
2023-03-26T06:43:57.689Z,983.49
2023-03-26T06:44:57.619Z,983.45
2023-03-26T06:45:57.539Z,983.47
2023-03-26T06:46:57.613Z,983.46
2023-03-26T06:47:57.441Z,983.44
2023-03-26T06:48:57.389Z,983.47
2023-03-26T06:49:57.311Z,983.41
2023-03-26T06:50:57.220Z,983.43
2023-03-26T06:51:57.185Z,983.44
2023-03-26T06:52:57.137Z,983.44
2023-03-26T06:53:57.120Z,983.46
2023-03-26T06:54:56.999Z,983.41
2023-03-26T06:55:56.996Z,983.40
2023-03-26T06:56:56.953Z,983.41
2023-03-26T06:57:56.836Z,983.37
2023-03-26T07:00:35.676Z,983.39
2023-03-26T07:01:36.681Z,983.37
2023-03-26T07:02:36.635Z,983.40
2023-03-26T07:03:36.530Z,983.38
2023-03-26T07:04:36.506Z,983.38
2023-03-26T07:05:36.368Z,983.35
2023-03-26T07:06:36.334Z,983.36
2023-03-26T07:07:36.262Z,983.37
2023-03-26T07:08:36.174Z,983.38
2023-03-26T07:09:36.116Z,983.36
2023-03-26T07:10:36.043Z,983.36
2023-03-26T07:11:36.024Z,983.43
2023-03-26T07:12:35.948Z,983.35
2023-03-26T07:13:35.856Z,983.37
2023-03-26T07:14:35.824Z,983.34
2023-03-26T07:15:35.743Z,983.38
2023-03-26T07:16:35.794Z,983.34
2023-03-26T07:17:36.252Z,983.35
2023-03-26T07:18:35.552Z,983.31
2023-03-26T07:19:35.501Z,983.27
2023-03-26T07:20:35.410Z,983.27
2023-03-26T07:21:35.340Z,983.23
2023-03-26T07:22:35.321Z,983.19
2023-03-26T07:23:35.226Z,983.19
2023-03-26T07:24:35.197Z,983.17
2023-03-26T07:25:35.103Z,983.20
2023-03-26T07:26:35.044Z,983.19
2023-03-26T07:27:35.004Z,983.18
2023-03-26T07:28:34.928Z,983.20
2023-03-26T07:29:34.860Z,983.22
2023-03-26T07:30:34.814Z,983.20
2023-03-26T07:31:34.879Z,983.22
2023-03-26T07:32:34.720Z,983.24
2023-03-26T07:33:34.627Z,983.22
2023-03-26T07:34:34.565Z,983.21
2023-03-26T07:35:34.476Z,983.14
2023-03-26T07:36:34.598Z,983.13
2023-03-26T07:37:34.343Z,983.12
2023-03-26T07:38:34.278Z,983.11
2023-03-26T07:39:34.206Z,983.12
2023-03-26T07:40:34.944Z,983.13
2023-03-26T07:41:34.090Z,983.10
2023-03-26T07:42:34.019Z,983.14
2023-03-26T07:43:33.986Z,983.09
2023-03-26T07:44:35.607Z,983.07
2023-03-26T07:45:33.914Z,983.12
2023-03-26T07:46:33.829Z,983.13
2023-03-26T07:47:33.810Z,983.14
2023-03-26T07:48:33.683Z,983.10
2023-03-26T07:49:33.655Z,983.08
2023-03-26T07:50:33.575Z,983.08
2023-03-26T07:51:33.492Z,983.12
2023-03-26T07:53:02.511Z,983.06
2023-03-26T07:53:33.413Z,983.07
2023-03-26T07:54:33.265Z,983.15
2023-03-26T07:55:33.323Z,983.11
2023-03-26T07:56:33.170Z,983.08
2023-03-26T07:57:33.268Z,983.05
2023-03-26T07:58:33.886Z,983.08
2023-03-26T07:59:33.007Z,983.08
2023-03-26T08:00:32.930Z,983.05
2023-03-26T08:01:32.868Z,983.07
2023-03-26T08:02:33.732Z,983.10
2023-03-26T08:03:32.919Z,983.07
2023-03-26T08:04:32.782Z,983.08
2023-03-26T08:05:32.636Z,983.03
2023-03-26T08:06:32.569Z,983.05
2023-03-26T08:07:32.461Z,983.09
2023-03-26T08:08:32.428Z,983.05
2023-03-26T08:09:32.339Z,983.06
2023-03-26T08:10:32.369Z,983.05
2023-03-26T08:11:32.249Z,983.02
2023-03-26T08:12:32.176Z,983.02
2023-03-26T08:13:32.077Z,982.98
2023-03-26T08:14:32.058Z,982.96
2023-03-26T08:15:31.997Z,982.95
2023-03-26T08:16:31.954Z,982.94
2023-03-26T08:17:31.919Z,982.91
2023-03-26T08:18:31.805Z,982.90
2023-03-26T08:19:31.713Z,982.96
2023-03-26T08:20:31.650Z,982.94
2023-03-26T08:21:31.636Z,982.95
2023-03-26T08:27:30.289Z,982.86
2023-03-26T08:28:10.171Z,982.89
2023-03-26T08:29:10.105Z,982.85
2023-03-26T08:30:10.036Z,982.84
2023-03-26T08:31:10.023Z,982.85
2023-03-26T08:32:10.005Z,982.84
2023-03-26T08:34:19.045Z,982.78
2023-03-26T08:35:20.009Z,982.81
2023-03-26T08:36:19.894Z,982.74
2023-03-26T08:37:19.931Z,982.73
2023-03-26T08:38:19.800Z,982.73
2023-03-26T08:39:19.765Z,982.69
2023-03-26T08:40:19.631Z,982.70
2023-03-26T08:41:19.597Z,982.72
2023-03-26T08:42:19.561Z,982.66
2023-03-26T08:43:19.520Z,982.67
2023-03-26T08:44:19.396Z,982.65
2023-03-26T08:45:19.330Z,982.60
2023-03-26T08:46:19.342Z,982.56
2023-03-26T08:47:19.236Z,982.58
2023-03-26T08:48:19.201Z,982.62
2023-03-26T08:49:19.164Z,982.60
2023-03-26T08:50:19.066Z,982.54
2023-03-26T08:51:40.014Z,982.52
2023-03-26T08:52:18.881Z,982.53
2023-03-26T08:53:18.869Z,982.50
2023-03-26T08:54:18.794Z,982.51
2023-03-26T08:55:18.718Z,982.53
2023-03-26T08:56:18.641Z,982.52
2023-03-26T08:57:18.656Z,982.51
2023-03-26T08:58:18.527Z,982.51
2023-03-26T08:59:18.539Z,982.49
2023-03-26T09:00:18.403Z,982.52
2023-03-26T09:01:18.395Z,982.51
2023-03-26T09:02:18.248Z,982.52
2023-03-26T09:03:18.253Z,982.45
2023-03-26T09:04:18.207Z,982.44
2023-03-26T09:05:18.088Z,982.47
2023-03-26T09:06:18.037Z,982.52
2023-03-26T09:07:17.963Z,982.45
2023-03-26T09:08:17.900Z,982.43
2023-03-26T09:09:19.110Z,982.39
2023-03-26T09:10:17.756Z,982.34
2023-03-26T09:11:17.707Z,982.37
2023-03-26T09:12:17.622Z,982.32
2023-03-26T09:13:17.590Z,982.33
2023-03-26T09:14:18.047Z,982.32
2023-03-26T09:15:17.566Z,982.29
2023-03-26T09:16:17.444Z,982.29
2023-03-26T09:17:17.380Z,982.29
2023-03-26T09:18:17.300Z,982.29
2023-03-26T09:19:17.222Z,982.29
2023-03-26T09:20:17.158Z,982.30
2023-03-26T09:21:17.082Z,982.27
2023-03-26T09:22:17.037Z,982.28
2023-03-26T09:23:16.967Z,982.32
2023-03-26T09:24:16.932Z,982.31
2023-03-26T09:25:16.869Z,982.28
2023-03-26T09:26:16.776Z,982.33
2023-03-26T09:27:16.760Z,982.28
2023-03-26T09:28:16.659Z,982.24
2023-03-26T09:29:16.627Z,982.27
2023-03-26T09:30:16.535Z,982.29
2023-03-26T09:31:16.580Z,982.25
2023-03-26T09:32:16.407Z,982.23
2023-03-26T09:33:16.371Z,982.19
2023-03-26T09:34:16.257Z,982.17
2023-03-26T09:35:16.306Z,982.18
2023-03-26T09:36:16.160Z,982.15
2023-03-26T09:37:16.093Z,982.18
2023-03-26T09:38:16.043Z,982.16
2023-03-26T09:39:16.021Z,982.15
2023-03-26T09:40:15.882Z,982.13
2023-03-26T09:41:15.846Z,982.15
2023-03-26T09:42:15.800Z,982.15
2023-03-26T09:43:15.766Z,982.16
2023-03-26T09:44:15.689Z,982.17
2023-03-26T09:45:36.651Z,982.13
2023-03-26T09:46:15.629Z,982.14
2023-03-26T09:47:15.480Z,982.11
2023-03-26T09:48:15.437Z,982.11
2023-03-26T09:49:15.352Z,982.14
2023-03-26T09:50:15.266Z,982.13
2023-03-26T09:51:15.265Z,982.13
2023-03-26T09:52:15.188Z,982.15
2023-03-26T09:53:15.099Z,982.15
2023-03-26T09:54:15.046Z,982.13
2023-03-26T09:55:15.009Z,982.07
2023-03-26T09:56:14.944Z,982.13
2023-03-26T09:57:14.925Z,982.12
2023-03-26T09:58:14.781Z,982.16
2023-03-26T09:59:14.732Z,982.15
2023-03-26T10:00:14.665Z,982.13
2023-03-26T10:01:14.637Z,982.16
2023-03-26T10:02:14.555Z,982.21
2023-03-26T10:03:14.595Z,982.07
2023-03-26T10:04:14.393Z,982.08
2023-03-26T10:05:14.356Z,982.08
2023-03-26T10:06:14.316Z,982.12
2023-03-26T10:07:14.223Z,982.08
2023-03-26T10:08:14.224Z,982.06
2023-03-26T10:09:14.162Z,982.09
2023-03-26T10:10:14.063Z,982.10
2023-03-26T10:11:14.851Z,982.06
2023-03-26T10:12:14.568Z,982.10
2023-03-26T10:13:14.915Z,982.05
2023-03-26T10:14:13.773Z,982.06
2023-03-26T10:15:34.705Z,982.01
2023-03-26T10:16:13.745Z,982.02
2023-03-26T10:17:13.616Z,982.03
2023-03-26T10:18:27.539Z,982.03
2023-03-26T10:19:13.465Z,982.02
2023-03-26T10:20:13.437Z,982.03
2023-03-26T10:21:13.357Z,982.00
2023-03-26T10:22:13.297Z,982.00
2023-03-26T10:23:13.226Z,982.01
2023-03-26T10:24:13.173Z,981.98
2023-03-26T10:25:13.122Z,981.98
2023-03-26T10:26:13.066Z,982.01
2023-03-26T10:27:13.045Z,982.00
2023-03-26T10:28:12.952Z,982.02
2023-03-26T10:29:12.840Z,982.01
2023-03-26T10:30:12.796Z,981.94
2023-03-26T10:31:12.834Z,981.95
2023-03-26T10:32:12.661Z,981.94
2023-03-26T10:33:12.632Z,981.92
2023-03-26T10:34:29.322Z,981.92
2023-03-26T10:35:12.523Z,981.91
2023-03-26T10:36:13.058Z,981.89
2023-03-26T10:37:12.364Z,981.93
2023-03-26T10:38:12.371Z,981.93
2023-03-26T10:39:37.184Z,981.93
2023-03-26T10:40:12.165Z,981.91
2023-03-26T10:41:12.165Z,981.93
2023-03-26T10:42:12.110Z,981.92
2023-03-26T10:43:12.491Z,981.89
2023-03-26T10:44:11.974Z,981.90
2023-03-26T10:45:11.937Z,981.89
2023-03-26T10:46:11.884Z,981.83
2023-03-26T10:47:11.785Z,981.90
2023-03-26T10:48:11.663Z,981.88
2023-03-26T10:49:11.611Z,981.91
2023-03-26T10:50:11.573Z,981.95
2023-03-26T10:51:11.495Z,981.93
2023-03-26T10:52:11.447Z,981.95
2023-03-26T10:53:11.358Z,981.92
2023-03-26T10:54:11.376Z,981.90
2023-03-26T10:55:11.284Z,981.88
2023-03-26T10:56:11.228Z,981.89
2023-03-26T10:57:32.089Z,981.92
2023-03-26T10:58:11.080Z,981.86
2023-03-26T10:59:11.061Z,981.91
2023-03-26T11:00:10.901Z,981.89
2023-03-26T11:01:10.863Z,981.96
2023-03-26T11:02:10.825Z,981.93
2023-03-26T11:03:10.811Z,981.94
2023-03-26T11:04:10.705Z,981.94
2023-03-26T11:05:10.620Z,981.95
2023-03-26T11:06:10.578Z,981.91
2023-03-26T11:07:10.524Z,981.92
2023-03-26T11:08:10.428Z,981.90
2023-03-26T11:09:10.436Z,981.89
2023-03-26T11:10:10.299Z,981.91
2023-03-26T11:11:10.262Z,981.89
2023-03-26T11:12:25.639Z,981.86
2023-03-26T11:13:10.155Z,981.85
2023-03-26T11:14:10.057Z,981.82
2023-03-26T11:15:31.094Z,981.89
2023-03-26T11:16:10.015Z,981.83
2023-03-26T11:17:09.887Z,981.84
2023-03-26T11:18:09.882Z,981.84
2023-03-26T11:19:09.747Z,981.85
2023-03-26T11:20:09.677Z,981.86
2023-03-26T11:21:19.207Z,981.84
2023-03-26T11:22:09.533Z,981.86
2023-03-26T11:23:09.557Z,981.85
2023-03-26T11:24:09.462Z,981.85
2023-03-26T11:25:09.368Z,981.83
2023-03-26T11:26:09.391Z,981.83
2023-03-26T11:27:14.433Z,981.84
2023-03-26T11:28:09.185Z,981.81
2023-03-26T11:29:32.768Z,981.84
2023-03-26T11:30:09.033Z,981.85
2023-03-26T11:31:09.066Z,981.83
2023-03-26T11:32:08.966Z,981.84
2023-03-26T11:34:47.802Z,981.76
2023-03-26T11:35:48.823Z,981.77
2023-03-26T11:36:48.656Z,981.82
2023-03-26T11:37:48.632Z,981.78
2023-03-26T11:38:48.554Z,981.79
2023-03-26T11:39:48.477Z,981.75
2023-03-26T11:40:48.389Z,981.77
2023-03-26T11:41:49.310Z,981.81
2023-03-26T11:42:48.293Z,981.81
2023-03-26T11:43:48.239Z,981.80
2023-03-26T11:44:48.185Z,981.77
2023-03-26T11:45:48.088Z,981.78
2023-03-26T11:46:48.127Z,981.74
2023-03-26T11:47:48.021Z,981.85
2023-03-26T11:48:48.831Z,981.78
2023-03-26T11:49:47.897Z,981.79
2023-03-26T11:52:26.733Z,981.80
2023-03-26T11:53:27.682Z,981.76
2023-03-26T11:54:27.567Z,981.74
2023-03-26T11:55:27.526Z,981.76
2023-03-26T11:56:27.511Z,981.74
2023-03-26T11:57:27.466Z,981.74
2023-03-26T11:58:27.346Z,981.74
2023-03-26T11:59:27.253Z,981.73
2023-03-26T12:00:27.266Z,981.72
2023-03-26T12:01:27.129Z,981.73
2023-03-26T12:02:27.177Z,981.72
2023-03-26T12:03:26.980Z,981.72
2023-03-26T12:04:27.827Z,981.73
2023-03-26T12:05:26.867Z,981.69
2023-03-26T12:06:27.304Z,981.69
2023-03-26T12:07:26.805Z,981.69
2023-03-26T12:08:47.752Z,981.65
2023-03-26T12:09:26.620Z,981.67
2023-03-26T12:10:26.548Z,981.68
2023-03-26T12:11:26.572Z,981.65
2023-03-26T12:12:26.500Z,981.65
2023-03-26T12:13:26.383Z,981.67
2023-03-26T12:14:26.400Z,981.67
2023-03-26T12:15:26.239Z,981.62
2023-03-26T12:16:26.255Z,981.62
2023-03-26T12:17:31.163Z,981.67
2023-03-26T12:18:26.062Z,981.60
2023-03-26T12:19:26.005Z,981.60
2023-03-26T12:20:25.989Z,981.68
2023-03-26T12:21:25.891Z,981.63
2023-03-26T12:22:25.830Z,981.59
2023-03-26T12:23:25.777Z,981.60
2023-03-26T12:24:25.712Z,981.58
2023-03-26T12:25:25.694Z,981.57
2023-03-26T12:26:25.678Z,981.58
2023-03-26T12:27:25.552Z,981.62
2023-03-26T12:28:25.468Z,981.58
2023-03-26T12:29:25.372Z,981.52
2023-03-26T12:30:28.022Z,981.55
2023-03-26T12:31:26.323Z,981.52
2023-03-26T12:32:35.667Z,981.54
2023-03-26T12:33:27.218Z,981.54
2023-03-26T12:34:26.211Z,981.49
2023-03-26T12:35:24.965Z,981.43
2023-03-26T12:36:24.962Z,981.44
2023-03-26T12:37:25.695Z,981.45
2023-03-26T12:38:24.859Z,981.43
2023-03-26T12:40:10.204Z,981.42
2023-03-26T12:40:24.707Z,981.38
2023-03-26T12:43:40.204Z,981.38
2023-03-26T12:45:00.084Z,981.44
2023-03-26T12:45:05.992Z,981.44
2023-03-26T12:47:58.375Z,981.40
2023-03-26T12:48:08.064Z,981.39